sensor_id;sensor_type;location;lat;lon;timestamp;P1;durP1;ratioP1;P2;durP2;ratioP2
46210;SDS011;52144;48.040;-1.594;2023-03-01T00:01:31;21.45;;;12.95;;
46210;SDS011;52144;48.040;-1.594;2023-03-01T00:03:59;23.77;;;14.55;;
46210;SDS011;52144;48.040;-1.594;2023-03-01T00:06:27;14.95;;;10.75;;
46210;SDS011;52144;48.040;-1.594;2023-03-01T00:08:56;23.95;;;12.93;;
46210;SDS011;52144;48.040;-1.594;2023-03-01T00:11:26;22.58;;;12.05;;
46210;SDS011;52144;48.040;-1.594;2023-03-01T00:13:55;23.00;;;13.70;;
46210;SDS011;52144;48.040;-1.594;2023-03-01T00:16:25;21.98;;;11.60;;
46210;SDS011;52144;48.040;-1.594;2023-03-01T00:18:56;16.17;;;11.13;;
46210;SDS011;52144;48.040;-1.594;2023-03-01T00:21:25;18.35;;;12.27;;
46210;SDS011;52144;48.040;-1.594;2023-03-01T00:23:54;16.35;;;12.13;;
46210;SDS011;52144;48.040;-1.594;2023-03-01T00:26:22;18.77;;;10.82;;
46210;SDS011;52144;48.040;-1.594;2023-03-01T00:28:53;16.77;;;12.07;;
46210;SDS011;52144;48.040;-1.594;2023-03-01T00:31:22;23.25;;;11.95;;
46210;SDS011;52144;48.040;-1.594;2023-03-01T00:33:52;17.10;;;10.55;;
46210;SDS011;52144;48.040;-1.594;2023-03-01T00:36:24;21.65;;;11.52;;
46210;SDS011;52144;48.040;-1.594;2023-03-01T00:38:54;19.98;;;12.27;;
46210;SDS011;52144;48.040;-1.594;2023-03-01T00:41:22;19.00;;;10.68;;
46210;SDS011;52144;48.040;-1.594;2023-03-01T00:43:54;23.98;;;13.90;;
46210;SDS011;52144;48.040;-1.594;2023-03-01T00:46:23;19.98;;;12.43;;
46210;SDS011;52144;48.040;-1.594;2023-03-01T00:48:53;22.08;;;12.05;;
46210;SDS011;52144;48.040;-1.594;2023-03-01T00:51:21;20.17;;;11.55;;
46210;SDS011;52144;48.040;-1.594;2023-03-01T00:53:52;16.05;;;10.38;;
46210;SDS011;52144;48.040;-1.594;2023-03-01T00:56:21;19.38;;;11.13;;
46210;SDS011;52144;48.040;-1.594;2023-03-01T00:58:49;17.27;;;12.07;;
46210;SDS011;52144;48.040;-1.594;2023-03-01T01:01:19;17.67;;;11.70;;
46210;SDS011;52144;48.040;-1.594;2023-03-01T01:03:49;19.33;;;11.27;;
46210;SDS011;52144;48.040;-1.594;2023-03-01T01:06:19;19.13;;;12.48;;
46210;SDS011;52144;48.040;-1.594;2023-03-01T01:08:49;16.35;;;10.32;;
46210;SDS011;52144;48.040;-1.594;2023-03-01T01:11:18;17.40;;;11.88;;
46210;SDS011;52144;48.040;-1.594;2023-03-01T01:13:47;20.75;;;12.10;;
46210;SDS011;52144;48.040;-1.594;2023-03-01T01:16:16;20.42;;;12.02;;
46210;SDS011;52144;48.040;-1.594;2023-03-01T01:18:47;17.48;;;12.30;;
46210;SDS011;52144;48.040;-1.594;2023-03-01T01:21:15;17.05;;;11.68;;
46210;SDS011;52144;48.040;-1.594;2023-03-01T01:23:46;16.83;;;10.57;;
46210;SDS011;52144;48.040;-1.594;2023-03-01T01:26:17;14.95;;;11.50;;
46210;SDS011;52144;48.040;-1.594;2023-03-01T01:28:47;14.60;;;10.07;;
46210;SDS011;52144;48.040;-1.594;2023-03-01T01:31:15;17.63;;;9.93;;
46210;SDS011;52144;48.040;-1.594;2023-03-01T01:33:43;16.98;;;11.75;;
46210;SDS011;52144;48.040;-1.594;2023-03-01T01:36:12;19.25;;;11.50;;
46210;SDS011;52144;48.040;-1.594;2023-03-01T01:38:40;19.98;;;11.70;;
46210;SDS011;52144;48.040;-1.594;2023-03-01T01:41:09;20.10;;;10.25;;
46210;SDS011;52144;48.040;-1.594;2023-03-01T01:43:39;18.23;;;11.68;;
46210;SDS011;52144;48.040;-1.594;2023-03-01T01:46:10;13.82;;;10.25;;
46210;SDS011;52144;48.040;-1.594;2023-03-01T01:49:00;21.27;;;10.50;;
46210;SDS011;52144;48.040;-1.594;2023-03-01T01:51:32;13.73;;;11.18;;
46210;SDS011;52144;48.040;-1.594;2023-03-01T01:54:06;19.48;;;10.82;;
46210;SDS011;52144;48.040;-1.594;2023-03-01T01:56:38;22.98;;;13.63;;
46210;SDS011;52144;48.040;-1.594;2023-03-01T01:59:10;19.15;;;11.43;;
46210;SDS011;52144;48.040;-1.594;2023-03-01T02:01:39;19.42;;;11.55;;
46210;SDS011;52144;48.040;-1.594;2023-03-01T02:04:07;22.90;;;13.10;;
46210;SDS011;52144;48.040;-1.594;2023-03-01T02:06:38;22.40;;;11.23;;
46210;SDS011;52144;48.040;-1.594;2023-03-01T02:09:11;15.60;;;10.27;;
46210;SDS011;52144;48.040;-1.594;2023-03-01T02:11:41;16.67;;;10.52;;
46210;SDS011;52144;48.040;-1.594;2023-03-01T02:14:09;14.52;;;10.48;;
46210;SDS011;52144;48.040;-1.594;2023-03-01T02:16:38;14.88;;;10.48;;
46210;SDS011;52144;48.040;-1.594;2023-03-01T02:19:06;14.30;;;10.13;;
46210;SDS011;52144;48.040;-1.594;2023-03-01T02:21:42;17.38;;;10.00;;
46210;SDS011;52144;48.040;-1.594;2023-03-01T02:24:19;18.33;;;12.43;;
46210;SDS011;52144;48.040;-1.594;2023-03-01T02:26:54;21.33;;;11.77;;
46210;SDS011;52144;48.040;-1.594;2023-03-01T02:29:25;13.20;;;9.77;;
46210;SDS011;52144;48.040;-1.594;2023-03-01T02:31:54;16.50;;;10.68;;
46210;SDS011;52144;48.040;-1.594;2023-03-01T02:34:24;15.80;;;10.32;;
46210;SDS011;52144;48.040;-1.594;2023-03-01T02:36:53;15.65;;;10.93;;
46210;SDS011;52144;48.040;-1.594;2023-03-01T02:39:25;16.00;;;11.93;;
46210;SDS011;52144;48.040;-1.594;2023-03-01T02:41:57;15.15;;;9.63;;
46210;SDS011;52144;48.040;-1.594;2023-03-01T02:44:27;15.88;;;9.18;;
46210;SDS011;52144;48.040;-1.594;2023-03-01T02:46:55;12.90;;;9.27;;
46210;SDS011;52144;48.040;-1.594;2023-03-01T02:49:26;15.73;;;12.15;;
46210;SDS011;52144;48.040;-1.594;2023-03-01T02:52:06;16.05;;;10.15;;
46210;SDS011;52144;48.040;-1.594;2023-03-01T02:54:45;18.08;;;10.45;;
46210;SDS011;52144;48.040;-1.594;2023-03-01T02:57:16;16.50;;;10.23;;
46210;SDS011;52144;48.040;-1.594;2023-03-01T02:59:47;20.50;;;10.70;;
46210;SDS011;52144;48.040;-1.594;2023-03-01T03:02:21;19.73;;;10.80;;
46210;SDS011;52144;48.040;-1.594;2023-03-01T03:05:06;12.27;;;10.32;;
46210;SDS011;52144;48.040;-1.594;2023-03-01T03:07:37;14.18;;;10.85;;
46210;SDS011;52144;48.040;-1.594;2023-03-01T03:10:07;19.10;;;11.85;;
46210;SDS011;52144;48.040;-1.594;2023-03-01T03:12:38;18.63;;;11.40;;
46210;SDS011;52144;48.040;-1.594;2023-03-01T03:15:08;16.30;;;9.90;;
46210;SDS011;52144;48.040;-1.594;2023-03-01T03:17:39;16.92;;;11.90;;
46210;SDS011;52144;48.040;-1.594;2023-03-01T03:20:11;21.40;;;11.32;;
46210;SDS011;52144;48.040;-1.594;2023-03-01T03:22:45;16.90;;;10.73;;
46210;SDS011;52144;48.040;-1.594;2023-03-01T03:25:14;13.85;;;10.40;;
46210;SDS011;52144;48.040;-1.594;2023-03-01T03:27:43;17.02;;;10.23;;
46210;SDS011;52144;48.040;-1.594;2023-03-01T03:30:14;15.98;;;9.02;;
46210;SDS011;52144;48.040;-1.594;2023-03-01T03:32:45;15.98;;;10.48;;
46210;SDS011;52144;48.040;-1.594;2023-03-01T03:35:19;18.23;;;11.45;;
46210;SDS011;52144;48.040;-1.594;2023-03-01T03:37:48;13.77;;;9.18;;
46210;SDS011;52144;48.040;-1.594;2023-03-01T03:40:33;15.50;;;9.32;;
46210;SDS011;52144;48.040;-1.594;2023-03-01T03:43:02;18.00;;;10.48;;
46210;SDS011;52144;48.040;-1.594;2023-03-01T03:45:32;14.57;;;9.70;;
46210;SDS011;52144;48.040;-1.594;2023-03-01T03:48:01;15.25;;;9.23;;
46210;SDS011;52144;48.040;-1.594;2023-03-01T03:50:30;18.95;;;10.45;;
46210;SDS011;52144;48.040;-1.594;2023-03-01T03:52:59;20.30;;;11.48;;
46210;SDS011;52144;48.040;-1.594;2023-03-01T03:55:28;24.35;;;11.43;;
46210;SDS011;52144;48.040;-1.594;2023-03-01T03:57:57;14.13;;;8.63;;
46210;SDS011;52144;48.040;-1.594;2023-03-01T04:00:28;15.30;;;9.73;;
46210;SDS011;52144;48.040;-1.594;2023-03-01T04:02:57;13.35;;;7.85;;
46210;SDS011;52144;48.040;-1.594;2023-03-01T04:05:26;15.00;;;10.02;;
46210;SDS011;52144;48.040;-1.594;2023-03-01T04:07:54;15.93;;;10.05;;
46210;SDS011;52144;48.040;-1.594;2023-03-01T04:12:56;15.98;;;10.30;;
46210;SDS011;52144;48.040;-1.594;2023-03-01T04:15:24;17.67;;;10.55;;
46210;SDS011;52144;48.040;-1.594;2023-03-01T04:17:54;15.55;;;9.40;;
46210;SDS011;52144;48.040;-1.594;2023-03-01T04:20:24;18.45;;;11.23;;
46210;SDS011;52144;48.040;-1.594;2023-03-01T04:22:57;18.33;;;9.30;;
46210;SDS011;52144;48.040;-1.594;2023-03-01T04:25:25;14.30;;;9.38;;
46210;SDS011;52144;48.040;-1.594;2023-03-01T04:27:53;13.23;;;8.98;;
46210;SDS011;52144;48.040;-1.594;2023-03-01T04:30:21;17.67;;;9.10;;
46210;SDS011;52144;48.040;-1.594;2023-03-01T04:32:51;10.50;;;7.88;;
46210;SDS011;52144;48.040;-1.594;2023-03-01T04:35:19;15.43;;;8.95;;
46210;SDS011;52144;48.040;-1.594;2023-03-01T04:37:48;12.25;;;7.60;;
46210;SDS011;52144;48.040;-1.594;2023-03-01T04:40:17;13.85;;;9.20;;
46210;SDS011;52144;48.040;-1.594;2023-03-01T04:42:45;17.73;;;9.75;;
46210;SDS011;52144;48.040;-1.594;2023-03-01T04:45:13;20.70;;;11.07;;
46210;SDS011;52144;48.040;-1.594;2023-03-01T04:47:41;11.60;;;7.90;;
46210;SDS011;52144;48.040;-1.594;2023-03-01T04:50:11;14.45;;;9.10;;
46210;SDS011;52144;48.040;-1.594;2023-03-01T04:52:39;13.93;;;10.02;;
46210;SDS011;52144;48.040;-1.594;2023-03-01T04:55:09;15.27;;;9.18;;
46210;SDS011;52144;48.040;-1.594;2023-03-01T04:57:37;17.38;;;10.85;;
46210;SDS011;52144;48.040;-1.594;2023-03-01T05:00:06;22.55;;;12.35;;
46210;SDS011;52144;48.040;-1.594;2023-03-01T05:02:47;12.23;;;9.38;;
46210;SDS011;52144;48.040;-1.594;2023-03-01T05:05:20;12.30;;;8.38;;
46210;SDS011;52144;48.040;-1.594;2023-03-01T05:07:55;16.38;;;11.57;;
46210;SDS011;52144;48.040;-1.594;2023-03-01T05:10:26;18.35;;;10.57;;
46210;SDS011;52144;48.040;-1.594;2023-03-01T05:12:56;15.88;;;9.50;;
46210;SDS011;52144;48.040;-1.594;2023-03-01T05:15:24;15.23;;;9.10;;
46210;SDS011;52144;48.040;-1.594;2023-03-01T05:17:53;15.80;;;10.13;;
46210;SDS011;52144;48.040;-1.594;2023-03-01T05:20:21;13.32;;;9.50;;
46210;SDS011;52144;48.040;-1.594;2023-03-01T05:22:50;19.23;;;9.60;;
46210;SDS011;52144;48.040;-1.594;2023-03-01T05:25:18;11.40;;;8.63;;
46210;SDS011;52144;48.040;-1.594;2023-03-01T05:27:49;21.60;;;11.85;;
46210;SDS011;52144;48.040;-1.594;2023-03-01T05:30:17;11.65;;;9.52;;
46210;SDS011;52144;48.040;-1.594;2023-03-01T05:32:46;15.40;;;10.68;;
46210;SDS011;52144;48.040;-1.594;2023-03-01T05:35:16;17.63;;;10.18;;
46210;SDS011;52144;48.040;-1.594;2023-03-01T05:37:45;20.25;;;9.27;;
46210;SDS011;52144;48.040;-1.594;2023-03-01T05:40:16;17.80;;;10.57;;
46210;SDS011;52144;48.040;-1.594;2023-03-01T05:42:46;11.05;;;8.52;;
46210;SDS011;52144;48.040;-1.594;2023-03-01T05:45:16;14.18;;;10.15;;
46210;SDS011;52144;48.040;-1.594;2023-03-01T05:47:45;15.35;;;10.43;;
46210;SDS011;52144;48.040;-1.594;2023-03-01T05:50:15;17.63;;;10.45;;
46210;SDS011;52144;48.040;-1.594;2023-03-01T05:52:46;15.95;;;9.75;;
46210;SDS011;52144;48.040;-1.594;2023-03-01T05:55:15;18.65;;;9.35;;
46210;SDS011;52144;48.040;-1.594;2023-03-01T05:57:44;16.00;;;9.70;;
46210;SDS011;52144;48.040;-1.594;2023-03-01T06:00:13;12.05;;;8.43;;
46210;SDS011;52144;48.040;-1.594;2023-03-01T06:02:44;15.07;;;8.52;;
46210;SDS011;52144;48.040;-1.594;2023-03-01T06:05:12;14.90;;;9.50;;
46210;SDS011;52144;48.040;-1.594;2023-03-01T06:07:41;15.07;;;8.65;;
46210;SDS011;52144;48.040;-1.594;2023-03-01T06:10:09;14.73;;;8.95;;
46210;SDS011;52144;48.040;-1.594;2023-03-01T06:12:38;15.15;;;9.45;;
46210;SDS011;52144;48.040;-1.594;2023-03-01T06:15:08;9.43;;;7.45;;
46210;SDS011;52144;48.040;-1.594;2023-03-01T06:17:38;18.80;;;9.38;;
46210;SDS011;52144;48.040;-1.594;2023-03-01T06:20:10;12.43;;;7.50;;
46210;SDS011;52144;48.040;-1.594;2023-03-01T06:22:40;9.63;;;6.90;;
46210;SDS011;52144;48.040;-1.594;2023-03-01T06:25:09;10.75;;;8.13;;
46210;SDS011;52144;48.040;-1.594;2023-03-01T06:27:38;16.88;;;8.20;;
46210;SDS011;52144;48.040;-1.594;2023-03-01T06:30:07;13.68;;;8.95;;
46210;SDS011;52144;48.040;-1.594;2023-03-01T06:32:37;14.43;;;8.70;;
46210;SDS011;52144;48.040;-1.594;2023-03-01T06:35:09;10.88;;;6.85;;
46210;SDS011;52144;48.040;-1.594;2023-03-01T06:37:38;16.25;;;9.30;;
46210;SDS011;52144;48.040;-1.594;2023-03-01T06:40:06;14.93;;;8.63;;
46210;SDS011;52144;48.040;-1.594;2023-03-01T06:42:38;13.25;;;8.45;;
46210;SDS011;52144;48.040;-1.594;2023-03-01T06:45:08;18.63;;;8.73;;
46210;SDS011;52144;48.040;-1.594;2023-03-01T06:47:36;13.70;;;9.18;;
46210;SDS011;52144;48.040;-1.594;2023-03-01T06:50:05;17.38;;;8.10;;
46210;SDS011;52144;48.040;-1.594;2023-03-01T06:52:35;13.95;;;8.45;;
46210;SDS011;52144;48.040;-1.594;2023-03-01T06:55:03;13.02;;;8.27;;
46210;SDS011;52144;48.040;-1.594;2023-03-01T06:57:32;11.40;;;8.48;;
46210;SDS011;52144;48.040;-1.594;2023-03-01T07:00:00;11.93;;;7.82;;
46210;SDS011;52144;48.040;-1.594;2023-03-01T07:02:27;11.07;;;7.95;;
46210;SDS011;52144;48.040;-1.594;2023-03-01T07:04:55;14.70;;;8.23;;
46210;SDS011;52144;48.040;-1.594;2023-03-01T07:07:23;15.50;;;9.00;;
46210;SDS011;52144;48.040;-1.594;2023-03-01T07:09:52;26.08;;;7.78;;
46210;SDS011;52144;48.040;-1.594;2023-03-01T07:12:20;13.38;;;7.45;;
46210;SDS011;52144;48.040;-1.594;2023-03-01T07:14:48;16.63;;;8.43;;
46210;SDS011;52144;48.040;-1.594;2023-03-01T07:17:16;17.38;;;8.88;;
46210;SDS011;52144;48.040;-1.594;2023-03-01T07:19:45;14.68;;;7.78;;
46210;SDS011;52144;48.040;-1.594;2023-03-01T07:22:12;12.73;;;8.35;;
46210;SDS011;52144;48.040;-1.594;2023-03-01T07:24:40;13.77;;;8.68;;
46210;SDS011;52144;48.040;-1.594;2023-03-01T07:27:09;12.68;;;8.20;;
46210;SDS011;52144;48.040;-1.594;2023-03-01T07:29:37;18.27;;;8.85;;
46210;SDS011;52144;48.040;-1.594;2023-03-01T07:32:05;13.80;;;8.40;;
46210;SDS011;52144;48.040;-1.594;2023-03-01T07:34:34;13.60;;;8.75;;
46210;SDS011;52144;48.040;-1.594;2023-03-01T07:37:01;9.20;;;6.50;;
46210;SDS011;52144;48.040;-1.594;2023-03-01T07:39:29;15.73;;;8.43;;
46210;SDS011;52144;48.040;-1.594;2023-03-01T07:41:57;15.82;;;9.35;;
46210;SDS011;52144;48.040;-1.594;2023-03-01T07:44:26;14.30;;;8.65;;
46210;SDS011;52144;48.040;-1.594;2023-03-01T07:46:54;12.93;;;8.27;;
46210;SDS011;52144;48.040;-1.594;2023-03-01T07:49:24;12.60;;;9.20;;
46210;SDS011;52144;48.040;-1.594;2023-03-01T07:51:53;12.40;;;7.22;;
46210;SDS011;52144;48.040;-1.594;2023-03-01T07:54:20;12.13;;;7.63;;
46210;SDS011;52144;48.040;-1.594;2023-03-01T07:56:48;17.55;;;7.93;;
46210;SDS011;52144;48.040;-1.594;2023-03-01T07:59:16;14.38;;;9.55;;
46210;SDS011;52144;48.040;-1.594;2023-03-01T08:01:45;13.27;;;8.27;;
46210;SDS011;52144;48.040;-1.594;2023-03-01T08:04:13;15.45;;;9.07;;
46210;SDS011;52144;48.040;-1.594;2023-03-01T08:06:41;12.73;;;8.30;;
46210;SDS011;52144;48.040;-1.594;2023-03-01T08:09:09;11.73;;;7.07;;
46210;SDS011;52144;48.040;-1.594;2023-03-01T08:11:36;16.95;;;9.18;;
46210;SDS011;52144;48.040;-1.594;2023-03-01T08:14:05;12.13;;;7.95;;
46210;SDS011;52144;48.040;-1.594;2023-03-01T08:16:33;13.82;;;7.68;;
46210;SDS011;52144;48.040;-1.594;2023-03-01T08:19:04;12.48;;;7.72;;
46210;SDS011;52144;48.040;-1.594;2023-03-01T08:21:32;16.52;;;7.82;;
46210;SDS011;52144;48.040;-1.594;2023-03-01T08:24:01;13.30;;;8.20;;
46210;SDS011;52144;48.040;-1.594;2023-03-01T08:26:29;12.63;;;7.85;;
46210;SDS011;52144;48.040;-1.594;2023-03-01T08:28:59;8.25;;;6.25;;
46210;SDS011;52144;48.040;-1.594;2023-03-01T08:31:28;9.52;;;6.97;;
46210;SDS011;52144;48.040;-1.594;2023-03-01T08:33:58;10.05;;;7.22;;
46210;SDS011;52144;48.040;-1.594;2023-03-01T08:36:30;14.77;;;9.38;;
46210;SDS011;52144;48.040;-1.594;2023-03-01T08:39:00;10.90;;;7.25;;
46210;SDS011;52144;48.040;-1.594;2023-03-01T08:41:28;13.90;;;7.78;;
46210;SDS011;52144;48.040;-1.594;2023-03-01T08:43:56;10.07;;;6.57;;
46210;SDS011;52144;48.040;-1.594;2023-03-01T08:46:26;10.90;;;6.55;;
46210;SDS011;52144;48.040;-1.594;2023-03-01T08:48:54;12.60;;;7.72;;
46210;SDS011;52144;48.040;-1.594;2023-03-01T08:51:22;8.77;;;6.95;;
46210;SDS011;52144;48.040;-1.594;2023-03-01T08:53:53;10.93;;;7.28;;
46210;SDS011;52144;48.040;-1.594;2023-03-01T08:56:21;6.85;;;6.18;;
46210;SDS011;52144;48.040;-1.594;2023-03-01T08:58:49;10.00;;;7.00;;
46210;SDS011;52144;48.040;-1.594;2023-03-01T09:01:17;11.32;;;7.35;;
46210;SDS011;52144;48.040;-1.594;2023-03-01T09:03:46;12.40;;;7.97;;
46210;SDS011;52144;48.040;-1.594;2023-03-01T09:06:14;13.05;;;6.78;;
46210;SDS011;52144;48.040;-1.594;2023-03-01T09:08:43;10.80;;;6.78;;
46210;SDS011;52144;48.040;-1.594;2023-03-01T09:11:14;10.05;;;6.25;;
46210;SDS011;52144;48.040;-1.594;2023-03-01T09:13:43;14.25;;;5.50;;
46210;SDS011;52144;48.040;-1.594;2023-03-01T09:16:12;11.55;;;8.43;;
46210;SDS011;52144;48.040;-1.594;2023-03-01T09:18:41;14.65;;;7.22;;
46210;SDS011;52144;48.040;-1.594;2023-03-01T09:21:10;11.48;;;7.13;;
46210;SDS011;52144;48.040;-1.594;2023-03-01T09:23:40;11.80;;;7.78;;
46210;SDS011;52144;48.040;-1.594;2023-03-01T09:26:10;11.32;;;7.57;;
46210;SDS011;52144;48.040;-1.594;2023-03-01T09:28:41;12.23;;;7.07;;
46210;SDS011;52144;48.040;-1.594;2023-03-01T09:31:09;10.43;;;6.47;;
46210;SDS011;52144;48.040;-1.594;2023-03-01T09:33:39;9.98;;;7.10;;
46210;SDS011;52144;48.040;-1.594;2023-03-01T09:36:08;12.38;;;6.95;;
46210;SDS011;52144;48.040;-1.594;2023-03-01T09:38:39;11.88;;;7.40;;
46210;SDS011;52144;48.040;-1.594;2023-03-01T09:41:09;12.15;;;6.40;;
46210;SDS011;52144;48.040;-1.594;2023-03-01T09:43:44;11.13;;;7.25;;
46210;SDS011;52144;48.040;-1.594;2023-03-01T09:46:22;8.30;;;5.70;;
46210;SDS011;52144;48.040;-1.594;2023-03-01T09:48:55;11.98;;;7.10;;
46210;SDS011;52144;48.040;-1.594;2023-03-01T09:51:26;9.93;;;5.85;;
46210;SDS011;52144;48.040;-1.594;2023-03-01T09:53:57;10.17;;;6.67;;
46210;SDS011;52144;48.040;-1.594;2023-03-01T09:56:28;13.98;;;7.43;;
46210;SDS011;52144;48.040;-1.594;2023-03-01T09:59:05;8.50;;;5.88;;
46210;SDS011;52144;48.040;-1.594;2023-03-01T10:01:50;9.85;;;6.75;;
46210;SDS011;52144;48.040;-1.594;2023-03-01T10:04:26;10.95;;;6.63;;
46210;SDS011;52144;48.040;-1.594;2023-03-01T10:07:05;12.98;;;8.05;;
46210;SDS011;52144;48.040;-1.594;2023-03-01T10:09:44;13.73;;;6.82;;
46210;SDS011;52144;48.040;-1.594;2023-03-01T10:12:14;11.32;;;7.90;;
46210;SDS011;52144;48.040;-1.594;2023-03-01T10:14:48;12.02;;;7.78;;
46210;SDS011;52144;48.040;-1.594;2023-03-01T10:17:24;15.27;;;8.15;;
46210;SDS011;52144;48.040;-1.594;2023-03-01T10:19:55;12.05;;;7.38;;
46210;SDS011;52144;48.040;-1.594;2023-03-01T10:22:37;10.88;;;7.03;;
46210;SDS011;52144;48.040;-1.594;2023-03-01T10:25:05;13.98;;;8.38;;
46210;SDS011;52144;48.040;-1.594;2023-03-01T10:27:34;14.23;;;9.07;;
46210;SDS011;52144;48.040;-1.594;2023-03-01T10:30:12;12.98;;;8.43;;
46210;SDS011;52144;48.040;-1.594;2023-03-01T10:32:46;11.57;;;7.72;;
46210;SDS011;52144;48.040;-1.594;2023-03-01T10:35:18;13.32;;;8.30;;
46210;SDS011;52144;48.040;-1.594;2023-03-01T10:37:57;11.07;;;7.03;;
46210;SDS011;52144;48.040;-1.594;2023-03-01T10:40:30;13.02;;;7.68;;
46210;SDS011;52144;48.040;-1.594;2023-03-01T10:42:58;17.13;;;7.40;;
46210;SDS011;52144;48.040;-1.594;2023-03-01T10:45:34;14.68;;;7.22;;
46210;SDS011;52144;48.040;-1.594;2023-03-01T10:48:04;14.35;;;8.98;;
46210;SDS011;52144;48.040;-1.594;2023-03-01T10:50:38;15.18;;;7.63;;
46210;SDS011;52144;48.040;-1.594;2023-03-01T10:53:18;14.02;;;8.27;;
46210;SDS011;52144;48.040;-1.594;2023-03-01T10:55:56;10.07;;;7.45;;
46210;SDS011;52144;48.040;-1.594;2023-03-01T10:58:26;15.05;;;9.02;;
46210;SDS011;52144;48.040;-1.594;2023-03-01T11:00:57;11.18;;;6.60;;
46210;SDS011;52144;48.040;-1.594;2023-03-01T11:03:27;15.95;;;7.53;;
46210;SDS011;52144;48.040;-1.594;2023-03-01T11:06:19;11.32;;;7.85;;
46210;SDS011;52144;48.040;-1.594;2023-03-01T11:08:49;11.50;;;7.25;;
46210;SDS011;52144;48.040;-1.594;2023-03-01T11:11:22;13.10;;;8.48;;
46210;SDS011;52144;48.040;-1.594;2023-03-01T11:13:54;11.70;;;7.03;;
46210;SDS011;52144;48.040;-1.594;2023-03-01T11:16:27;16.08;;;7.50;;
46210;SDS011;52144;48.040;-1.594;2023-03-01T11:18:59;11.00;;;7.28;;
46210;SDS011;52144;48.040;-1.594;2023-03-01T11:21:42;12.70;;;6.20;;
46210;SDS011;52144;48.040;-1.594;2023-03-01T11:24:14;11.18;;;6.70;;
46210;SDS011;52144;48.040;-1.594;2023-03-01T11:26:45;13.52;;;7.43;;
46210;SDS011;52144;48.040;-1.594;2023-03-01T11:29:19;12.68;;;8.13;;
46210;SDS011;52144;48.040;-1.594;2023-03-01T11:32:07;13.02;;;7.25;;
46210;SDS011;52144;48.040;-1.594;2023-03-01T11:34:39;13.93;;;7.15;;
46210;SDS011;52144;48.040;-1.594;2023-03-01T11:37:13;14.70;;;8.68;;
46210;SDS011;52144;48.040;-1.594;2023-03-01T11:39:53;10.52;;;7.88;;
46210;SDS011;52144;48.040;-1.594;2023-03-01T11:42:28;11.77;;;6.68;;
46210;SDS011;52144;48.040;-1.594;2023-03-01T11:45:06;14.93;;;7.90;;
46210;SDS011;52144;48.040;-1.594;2023-03-01T11:47:42;14.13;;;8.70;;
46210;SDS011;52144;48.040;-1.594;2023-03-01T11:50:34;13.25;;;7.40;;
46210;SDS011;52144;48.040;-1.594;2023-03-01T11:53:13;18.48;;;8.05;;
46210;SDS011;52144;48.040;-1.594;2023-03-01T11:56:13;11.63;;;7.22;;
46210;SDS011;52144;48.040;-1.594;2023-03-01T11:58:54;12.68;;;8.00;;
46210;SDS011;52144;48.040;-1.594;2023-03-01T12:01:57;12.55;;;7.63;;
46210;SDS011;52144;48.040;-1.594;2023-03-01T12:08:04;12.90;;;8.43;;
46210;SDS011;52144;48.040;-1.594;2023-03-01T12:10:42;12.32;;;7.85;;
46210;SDS011;52144;48.040;-1.594;2023-03-01T12:13:23;12.75;;;6.70;;
46210;SDS011;52144;48.040;-1.594;2023-03-01T12:16:07;16.17;;;8.38;;
46210;SDS011;52144;48.040;-1.594;2023-03-01T12:19:08;12.82;;;8.23;;
46210;SDS011;52144;48.040;-1.594;2023-03-01T12:22:12;16.58;;;8.05;;
46210;SDS011;52144;48.040;-1.594;2023-03-01T12:24:54;14.82;;;7.75;;
46210;SDS011;52144;48.040;-1.594;2023-03-01T12:27:47;13.98;;;7.47;;
46210;SDS011;52144;48.040;-1.594;2023-03-01T12:30:29;13.77;;;7.80;;
46210;SDS011;52144;48.040;-1.594;2023-03-01T12:33:13;15.10;;;7.97;;
46210;SDS011;52144;48.040;-1.594;2023-03-01T12:35:51;19.60;;;9.23;;
46210;SDS011;52144;48.040;-1.594;2023-03-01T12:38:41;13.50;;;8.73;;
46210;SDS011;52144;48.040;-1.594;2023-03-01T12:47:15;16.90;;;7.85;;
46210;SDS011;52144;48.040;-1.594;2023-03-01T12:49:54;11.98;;;7.53;;
46210;SDS011;52144;48.040;-1.594;2023-03-01T12:52:28;16.88;;;8.93;;
46210;SDS011;52144;48.040;-1.594;2023-03-01T12:55:06;15.55;;;9.38;;
46210;SDS011;52144;48.040;-1.594;2023-03-01T12:57:46;11.52;;;8.02;;
46210;SDS011;52144;48.040;-1.594;2023-03-01T13:00:26;13.98;;;7.40;;
46210;SDS011;52144;48.040;-1.594;2023-03-01T13:02:59;13.25;;;7.15;;
46210;SDS011;52144;48.040;-1.594;2023-03-01T13:05:35;15.68;;;8.82;;
46210;SDS011;52144;48.040;-1.594;2023-03-01T13:08:11;10.48;;;7.38;;
46210;SDS011;52144;48.040;-1.594;2023-03-01T13:10:46;15.82;;;7.38;;
46210;SDS011;52144;48.040;-1.594;2023-03-01T13:13:19;12.98;;;6.90;;
46210;SDS011;52144;48.040;-1.594;2023-03-01T13:15:48;11.15;;;7.63;;
46210;SDS011;52144;48.040;-1.594;2023-03-01T13:18:30;19.30;;;7.20;;
46210;SDS011;52144;48.040;-1.594;2023-03-01T13:21:00;13.25;;;5.93;;
46210;SDS011;52144;48.040;-1.594;2023-03-01T13:23:35;8.43;;;6.15;;
46210;SDS011;52144;48.040;-1.594;2023-03-01T13:26:07;8.50;;;5.22;;
46210;SDS011;52144;48.040;-1.594;2023-03-01T13:34:40;9.32;;;5.78;;
46210;SDS011;52144;48.040;-1.594;2023-03-01T13:37:20;9.35;;;5.63;;
46210;SDS011;52144;48.040;-1.594;2023-03-01T13:39:49;8.88;;;5.70;;
46210;SDS011;52144;48.040;-1.594;2023-03-01T13:42:41;10.77;;;5.90;;
46210;SDS011;52144;48.040;-1.594;2023-03-01T13:45:27;7.35;;;5.00;;
46210;SDS011;52144;48.040;-1.594;2023-03-01T13:48:08;10.10;;;6.10;;
46210;SDS011;52144;48.040;-1.594;2023-03-01T13:50:39;10.00;;;5.63;;
46210;SDS011;52144;48.040;-1.594;2023-03-01T13:53:14;7.82;;;5.45;;
46210;SDS011;52144;48.040;-1.594;2023-03-01T13:55:45;7.78;;;5.47;;
46210;SDS011;52144;48.040;-1.594;2023-03-01T13:58:19;8.77;;;5.97;;
46210;SDS011;52144;48.040;-1.594;2023-03-01T14:00:55;7.10;;;5.18;;
46210;SDS011;52144;48.040;-1.594;2023-03-01T14:03:25;8.98;;;5.65;;
46210;SDS011;52144;48.040;-1.594;2023-03-01T14:06:01;12.35;;;5.88;;
46210;SDS011;52144;48.040;-1.594;2023-03-01T14:08:41;6.95;;;4.72;;
46210;SDS011;52144;48.040;-1.594;2023-03-01T14:14:25;7.68;;;5.38;;
46210;SDS011;52144;48.040;-1.594;2023-03-01T14:17:02;6.63;;;4.95;;
46210;SDS011;52144;48.040;-1.594;2023-03-01T14:19:40;6.57;;;4.68;;
46210;SDS011;52144;48.040;-1.594;2023-03-01T14:22:14;7.28;;;4.68;;
46210;SDS011;52144;48.040;-1.594;2023-03-01T14:24:48;9.45;;;4.45;;
46210;SDS011;52144;48.040;-1.594;2023-03-01T14:27:17;10.15;;;5.55;;
46210;SDS011;52144;48.040;-1.594;2023-03-01T14:29:55;6.13;;;3.95;;
46210;SDS011;52144;48.040;-1.594;2023-03-01T14:32:25;10.95;;;5.80;;
46210;SDS011;52144;48.040;-1.594;2023-03-01T14:34:55;6.38;;;4.50;;
46210;SDS011;52144;48.040;-1.594;2023-03-01T14:37:24;6.05;;;4.03;;
46210;SDS011;52144;48.040;-1.594;2023-03-01T14:39:54;9.90;;;4.55;;
46210;SDS011;52144;48.040;-1.594;2023-03-01T14:42:24;8.35;;;5.60;;
46210;SDS011;52144;48.040;-1.594;2023-03-01T14:44:56;6.13;;;4.70;;
46210;SDS011;52144;48.040;-1.594;2023-03-01T14:47:28;7.30;;;4.80;;
46210;SDS011;52144;48.040;-1.594;2023-03-01T14:49:59;7.63;;;4.03;;
46210;SDS011;52144;48.040;-1.594;2023-03-01T14:52:31;9.02;;;4.50;;
46210;SDS011;52144;48.040;-1.594;2023-03-01T14:55:04;6.15;;;3.25;;
46210;SDS011;52144;48.040;-1.594;2023-03-01T14:57:34;5.40;;;4.03;;
46210;SDS011;52144;48.040;-1.594;2023-03-01T15:00:05;6.38;;;3.67;;
46210;SDS011;52144;48.040;-1.594;2023-03-01T15:02:34;6.95;;;4.38;;
46210;SDS011;52144;48.040;-1.594;2023-03-01T15:05:03;9.07;;;4.88;;
46210;SDS011;52144;48.040;-1.594;2023-03-01T15:07:35;7.03;;;3.83;;